Sea Amore — H9OC — position and weather

sailwx.info

Track history (hours):
 
Tides and Currents Weather Stations Pressure Air Temp Water Temp Dewpoint Dewpoint Depression Visibility Wind Speed Wind Dir Waves Ship Positions

Sea Amore

Last reported at 2014-Oct-01 09:33 UTC. Time now 2014-Oct-02 14:44 UTC.
Position N 39°32' E 001°18'.

Length 148 m; draft 9.9 m.

Type: Cargo ship. MMSI: 357019000.

Date/timePositionNaut miles runAvg speedWind from/ knotsBaromVisibWave heightAir tempDewpointWater temp
2014-Oct-01 09:33N 39°32' E 001°18'1312.6
2014-Oct-01 08:33N 39°27' E 001°33'1212.5
2014-Oct-01 07:33N 39°22' E 001°48'1212.3
2014-Oct-01 06:33N 39°17' E 002°02'1212.1
2014-Oct-01 05:33N 39°12' E 002°16'1212.3
2014-Oct-01 04:33N 39°07' E 002°31'1212.3
2014-Oct-01 03:33N 39°02' E 002°45'1212.4
2014-Oct-01 02:34N 38°58' E 003°01'1212.3
2014-Oct-01 01:34N 38°56' E 003°16'1312.1
2014-Oct-01 00:31N 38°53' E 003°32'1212.2
2014-Sep-30 23:33N 38°51' E 003°47'1211.4
2014-Sep-30 22:33N 38°47' E 004°01'1211.7
2014-Sep-30 21:31N 38°44' E 004°16'45512.0
2014-Sep-29 07:32N 36°52' E 013°33'1211.9
2014-Sep-29 06:33N 36°48' E 013°47'1211.5
2014-Sep-29 05:33N 36°45' E 014°01'1211.6
2014-Sep-29 04:33N 36°41' E 014°15'1212.3
2014-Sep-29 03:33N 36°38' E 014°29'2712.2
2014-Sep-29 01:23N 36°35' E 015°02'409 8.0
2014-Sep-26 22:16N 36°50' E 023°32'5112.4
2014-Sep-26 18:11N 37°32' E 024°08'1412.4
2014-Sep-26 17:04N 37°43' E 024°18'612.3
2014-Sep-26 16:33N 37°47' E 024°24'1212.4
2014-Sep-26 15:33N 37°56' E 024°35'1512.9
2014-Sep-26 14:21N 38°10' E 024°44'24711.3
2014-Sep-25 16:33N 40°54' E 028°43'1111.0
2014-Sep-25 15:33N 40°58' E 028°56'1 1.0
2014-Sep-25 14:33N 40°59' E 028°57'0 0.0
2014-Sep-25 13:33N 40°59' E 028°57'0 0.0
2014-Sep-25 12:33N 40°59' E 028°57'0 0.0
2014-Sep-25 11:33N 40°59' E 028°57'0 0.1
2014-Sep-25 10:33N 40°59' E 028°57'351 8.6
2014-Sep-23 17:33N 46°35' E 031°20'9 9.4
2014-Sep-23 16:33N 46°35' E 031°33'1010.5
2014-Sep-23 15:33N 46°36' E 031°49'9 9.1
2014-Sep-23 14:33N 46°43' E 031°56'7 6.2
2014-Sep-23 13:30N 46°50' E 031°55'0 0.1
2014-Sep-23 12:33N 46°50' E 031°55'0 0.0
2014-Sep-23 11:33N 46°50' E 031°55'0 0.2
2014-Sep-23 10:33N 46°50' E 031°56'1 1.2
2014-Sep-23 09:32N 46°50' E 031°57'0 0.0
2014-Sep-23 08:32N 46°50' E 031°57'0 0.0
2014-Sep-23 07:32N 46°50' E 031°57'0 0.0
2014-Sep-23 06:32N 46°50' E 031°57'0 0.0
2014-Sep-23 05:32N 46°50' E 031°57'0 0.0
2014-Sep-23 04:32N 46°50' E 031°57'0 0.0
2014-Sep-23 03:32N 46°50' E 031°57'0 0.0
2014-Sep-23 02:32N 46°50' E 031°57'0 0.0
2014-Sep-22 13:19N 46°50' E 031°57'0 0.0
2014-Sep-22 12:31N 46°50' E 031°57'0 0.0
2014-Sep-22 11:31N 46°50' E 031°57'0 0.0
2014-Sep-22 10:31N 46°50' E 031°57'0 0.0
2014-Sep-22 09:31N 46°50' E 031°57'0 0.0
2014-Sep-22 08:31N 46°50' E 031°57'0 0.0
2014-Sep-22 07:31N 46°50' E 031°57'0 0.0
2014-Sep-22 06:31N 46°50' E 031°57'0 0.0
2014-Sep-22 05:31N 46°50' E 031°57'0 0.0
2014-Sep-22 04:31N 46°50' E 031°57'0 0.0
2014-Sep-22 03:31N 46°50' E 031°57'0 0.0
2014-Sep-22 02:31N 46°50' E 031°57'0 0.0
2014-Sep-22 01:31N 46°50' E 031°57'0 0.0
2014-Sep-22 00:31N 46°50' E 031°57'0 0.0
2014-Sep-21 23:31N 46°50' E 031°57'0 0.0
2014-Sep-21 22:31N 46°50' E 031°57'0 0.0
2014-Sep-21 21:31N 46°50' E 031°57'0 0.0
2014-Sep-21 20:31N 46°50' E 031°57'0 0.0
2014-Sep-21 19:31N 46°50' E 031°57'0 0.0
2014-Sep-21 18:31N 46°50' E 031°57'0 0.0
2014-Sep-21 17:31N 46°50' E 031°57'0 0.0
2014-Sep-21 16:31N 46°50' E 031°57'0 0.0
2014-Sep-21 15:31N 46°50' E 031°57'0 0.0
2014-Sep-21 14:31N 46°50' E 031°57'0 0.0
2014-Sep-21 13:31N 46°50' E 031°57'0 0.0
2014-Sep-21 12:31N 46°50' E 031°57'0 0.0
2014-Sep-21 11:31N 46°50' E 031°57'0 0.0
2014-Sep-21 10:31N 46°50' E 031°57'0 0.0
2014-Sep-21 09:34N 46°50' E 031°57'  
Track history (hours):
 
Tides and Currents Weather Stations Pressure Air Temp Water Temp Dewpoint Dewpoint Depression Visibility Wind Speed Wind Dir Waves Ship Positions

Sea Amore

Last reported at 2014-Oct-01 09:33 UTC. Time now 2014-Oct-02 14:44 UTC.
Position N 39°32' E 001°18'.

Length 148 m; draft 9.9 m.

Type: Cargo ship. MMSI: 357019000.

Date/timePositionNaut miles runAvg speedWind from/ knotsBaromVisibWave heightAir tempDewpointWater temp
2014-Oct-01 09:33N 39°32' E 001°18'1312.6
2014-Oct-01 08:33N 39°27' E 001°33'1212.5
2014-Oct-01 07:33N 39°22' E 001°48'1212.3
2014-Oct-01 06:33N 39°17' E 002°02'1212.1
2014-Oct-01 05:33N 39°12' E 002°16'1212.3
2014-Oct-01 04:33N 39°07' E 002°31'1212.3
2014-Oct-01 03:33N 39°02' E 002°45'1212.4
2014-Oct-01 02:34N 38°58' E 003°01'1212.3
2014-Oct-01 01:34N 38°56' E 003°16'1312.1
2014-Oct-01 00:31N 38°53' E 003°32'1212.2
2014-Sep-30 23:33N 38°51' E 003°47'1211.4
2014-Sep-30 22:33N 38°47' E 004°01'1211.7
2014-Sep-30 21:31N 38°44' E 004°16'45512.0
2014-Sep-29 07:32N 36°52' E 013°33'1211.9
2014-Sep-29 06:33N 36°48' E 013°47'1211.5
2014-Sep-29 05:33N 36°45' E 014°01'1211.6
2014-Sep-29 04:33N 36°41' E 014°15'1212.3
2014-Sep-29 03:33N 36°38' E 014°29'2712.2
2014-Sep-29 01:23N 36°35' E 015°02'409 8.0
2014-Sep-26 22:16N 36°50' E 023°32'5112.4
2014-Sep-26 18:11N 37°32' E 024°08'1412.4
2014-Sep-26 17:04N 37°43' E 024°18'612.3
2014-Sep-26 16:33N 37°47' E 024°24'1212.4
2014-Sep-26 15:33N 37°56' E 024°35'1512.9
2014-Sep-26 14:21N 38°10' E 024°44'24711.3
2014-Sep-25 16:33N 40°54' E 028°43'1111.0
2014-Sep-25 15:33N 40°58' E 028°56'1 1.0
2014-Sep-25 14:33N 40°59' E 028°57'0 0.0
2014-Sep-25 13:33N 40°59' E 028°57'0 0.0
2014-Sep-25 12:33N 40°59' E 028°57'0 0.0
2014-Sep-25 11:33N 40°59' E 028°57'0 0.1
2014-Sep-25 10:33N 40°59' E 028°57'351 8.6
2014-Sep-23 17:33N 46°35' E 031°20'9 9.4
2014-Sep-23 16:33N 46°35' E 031°33'1010.5
2014-Sep-23 15:33N 46°36' E 031°49'9 9.1
2014-Sep-23 14:33N 46°43' E 031°56'7 6.2
2014-Sep-23 13:30N 46°50' E 031°55'0 0.1
2014-Sep-23 12:33N 46°50' E 031°55'0 0.0
2014-Sep-23 11:33N 46°50' E 031°55'0 0.2
2014-Sep-23 10:33N 46°50' E 031°56'1 1.2
2014-Sep-23 09:32N 46°50' E 031°57'0 0.0
2014-Sep-23 08:32N 46°50' E 031°57'0 0.0
2014-Sep-23 07:32N 46°50' E 031°57'0 0.0
2014-Sep-23 06:32N 46°50' E 031°57'0 0.0
2014-Sep-23 05:32N 46°50' E 031°57'0 0.0
2014-Sep-23 04:32N 46°50' E 031°57'0 0.0
2014-Sep-23 03:32N 46°50' E 031°57'0 0.0
2014-Sep-23 02:32N 46°50' E 031°57'0 0.0
2014-Sep-22 13:19N 46°50' E 031°57'0 0.0
2014-Sep-22 12:31N 46°50' E 031°57'0 0.0
2014-Sep-22 11:31N 46°50' E 031°57'0 0.0
2014-Sep-22 10:31N 46°50' E 031°57'0 0.0
2014-Sep-22 09:31N 46°50' E 031°57'0 0.0
2014-Sep-22 08:31N 46°50' E 031°57'0 0.0
2014-Sep-22 07:31N 46°50' E 031°57'0 0.0
2014-Sep-22 06:31N 46°50' E 031°57'0 0.0
2014-Sep-22 05:31N 46°50' E 031°57'0 0.0
2014-Sep-22 04:31N 46°50' E 031°57'0 0.0
2014-Sep-22 03:31N 46°50' E 031°57'0 0.0
2014-Sep-22 02:31N 46°50' E 031°57'0 0.0
2014-Sep-22 01:31N 46°50' E 031°57'0 0.0
2014-Sep-22 00:31N 46°50' E 031°57'0 0.0
2014-Sep-21 23:31N 46°50' E 031°57'0 0.0
2014-Sep-21 22:31N 46°50' E 031°57'0 0.0
2014-Sep-21 21:31N 46°50' E 031°57'0 0.0
2014-Sep-21 20:31N 46°50' E 031°57'0 0.0
2014-Sep-21 19:31N 46°50' E 031°57'0 0.0
2014-Sep-21 18:31N 46°50' E 031°57'0 0.0
2014-Sep-21 17:31N 46°50' E 031°57'0 0.0
2014-Sep-21 16:31N 46°50' E 031°57'0 0.0
2014-Sep-21 15:31N 46°50' E 031°57'0 0.0
2014-Sep-21 14:31N 46°50' E 031°57'0 0.0
2014-Sep-21 13:31N 46°50' E 031°57'0 0.0
2014-Sep-21 12:31N 46°50' E 031°57'0 0.0
2014-Sep-21 11:31N 46°50' E 031°57'0 0.0
2014-Sep-21 10:31N 46°50' E 031°57'0 0.0
2014-Sep-21 09:34N 46°50' E 031°57'  

Dump ship's entire track history